sensor_id;sensor_type;location;lat;lon;timestamp;pressure;altitude;pressure_sealevel;temperature;humidity
66486;BME280;53303;47.476;8.084;2022-09-27T00:00:27;94973.88;;;20.87;43.96
66486;BME280;53303;47.476;8.084;2022-09-27T00:02:52;94953.69;;;20.87;44.03
66486;BME280;53303;47.476;8.084;2022-09-27T00:05:18;94966.06;;;20.86;44.10
66486;BME280;53303;47.476;8.084;2022-09-27T00:07:44;94971.63;;;20.86;43.85
66486;BME280;53303;47.476;8.084;2022-09-27T00:10:10;94968.09;;;20.85;43.74
66486;BME280;53303;47.476;8.084;2022-09-27T00:12:36;94958.06;;;20.82;43.96
66486;BME280;53303;47.476;8.084;2022-09-27T00:15:03;94959.03;;;20.85;43.95
66486;BME280;53303;47.476;8.084;2022-09-27T00:17:28;94961.13;;;20.79;43.75
66486;BME280;53303;47.476;8.084;2022-09-27T00:19:54;94974.91;;;20.84;43.88
66486;BME280;53303;47.476;8.084;2022-09-27T00:22:22;94977.69;;;20.84;43.85
66486;BME280;53303;47.476;8.084;2022-09-27T00:24:48;94969.38;;;20.84;44.07
66486;BME280;53303;47.476;8.084;2022-09-27T00:27:14;94960.34;;;20.78;43.87
66486;BME280;53303;47.476;8.084;2022-09-27T00:29:39;94952.03;;;20.78;43.87
66486;BME280;53303;47.476;8.084;2022-09-27T00:32:04;94966.16;;;20.80;43.78
66486;BME280;53303;47.476;8.084;2022-09-27T00:34:30;94967.19;;;20.77;43.76
66486;BME280;53303;47.476;8.084;2022-09-27T00:36:57;94962.84;;;20.82;43.70
66486;BME280;53303;47.476;8.084;2022-09-27T00:39:23;94977.25;;;20.80;43.70
66486;BME280;53303;47.476;8.084;2022-09-27T00:41:49;94964.41;;;20.77;43.95
66486;BME280;53303;47.476;8.084;2022-09-27T00:49:28;94984.78;;;20.80;43.83
66486;BME280;53303;47.476;8.084;2022-09-27T00:52:00;94977.00;;;20.78;43.79
66486;BME280;53303;47.476;8.084;2022-09-27T00:54:28;94993.88;;;20.80;43.91
66486;BME280;53303;47.476;8.084;2022-09-27T00:56:55;94969.53;;;20.73;43.87
66486;BME280;53303;47.476;8.084;2022-09-27T00:59:25;94990.34;;;20.80;43.78
66486;BME280;53303;47.476;8.084;2022-09-27T01:01:53;94991.63;;;20.79;44.01
66486;BME280;53303;47.476;8.084;2022-09-27T01:04:21;94988.84;;;20.79;44.01
66486;BME280;53303;47.476;8.084;2022-09-27T01:06:49;94981.81;;;20.78;43.92
66486;BME280;53303;47.476;8.084;2022-09-27T01:09:15;94999.72;;;20.77;43.96
66486;BME280;53303;47.476;8.084;2022-09-27T01:11:51;94992.88;;;20.78;44.00
66486;BME280;53303;47.476;8.084;2022-09-27T01:30:40;95034.47;;;20.78;44.34
66486;BME280;53303;47.476;8.084;2022-09-27T01:43:37;95012.81;;;20.76;44.26
66486;BME280;53303;47.476;8.084;2022-09-27T01:46:08;95016.66;;;20.73;44.35
66486;BME280;53303;47.476;8.084;2022-09-27T01:48:40;95021.13;;;20.76;44.26
66486;BME280;53303;47.476;8.084;2022-09-27T01:51:14;95013.13;;;20.72;44.27
66486;BME280;53303;47.476;8.084;2022-09-27T01:53:44;95016.66;;;20.73;44.43
66486;BME280;53303;47.476;8.084;2022-09-27T01:56:18;95029.69;;;20.78;44.10
66486;BME280;53303;47.476;8.084;2022-09-27T01:58:56;95025.94;;;20.76;44.51
66486;BME280;53303;47.476;8.084;2022-09-27T02:01:25;95021.13;;;20.76;44.34
66486;BME280;53303;47.476;8.084;2022-09-27T02:03:53;95028.19;;;20.77;44.38
66486;BME280;53303;47.476;8.084;2022-09-27T02:06:25;95029.44;;;20.76;44.25
66486;BME280;53303;47.476;8.084;2022-09-27T02:09:09;95025.72;;;20.73;44.40
66486;BME280;53303;47.476;8.084;2022-09-27T02:11:38;95023.91;;;20.76;44.25
66486;BME280;53303;47.476;8.084;2022-09-27T02:14:15;95031.03;;;20.71;44.33
66486;BME280;53303;47.476;8.084;2022-09-27T02:16:48;95032.22;;;20.76;44.54
66486;BME280;53303;47.476;8.084;2022-09-27T02:19:20;95036.66;;;20.60;44.64
66486;BME280;53303;47.476;8.084;2022-09-27T02:24:53;95035.34;;;20.67;44.54
66486;BME280;53303;47.476;8.084;2022-09-27T02:27:27;95042.88;;;20.72;44.59
66486;BME280;53303;47.476;8.084;2022-09-27T02:30:01;95047.16;;;20.73;44.66
66486;BME280;53303;47.476;8.084;2022-09-27T02:32:27;95052.69;;;20.73;44.42
66486;BME280;53303;47.476;8.084;2022-09-27T02:34:54;95046.16;;;20.70;44.54
66486;BME280;53303;47.476;8.084;2022-09-27T02:37:22;95051.41;;;20.74;44.57
66486;BME280;53303;47.476;8.084;2022-09-27T02:39:47;95057.69;;;20.75;44.45
66486;BME280;53303;47.476;8.084;2022-09-27T02:42:13;95055.72;;;20.69;44.58
66486;BME280;53303;47.476;8.084;2022-09-27T02:44:38;95062.03;;;20.70;44.61
66486;BME280;53303;47.476;8.084;2022-09-27T02:47:26;95068.03;;;20.74;44.64
66486;BME280;53303;47.476;8.084;2022-09-27T02:55:31;95049.28;;;20.61;44.47
66486;BME280;53303;47.476;8.084;2022-09-27T03:04:34;95088.03;;;20.67;44.74
66486;BME280;53303;47.476;8.084;2022-09-27T03:07:02;95079.19;;;20.68;44.63
66486;BME280;53303;47.476;8.084;2022-09-27T03:09:40;95083.00;;;20.65;44.69
66486;BME280;53303;47.476;8.084;2022-09-27T03:12:05;95098.31;;;20.72;44.66
66486;BME280;53303;47.476;8.084;2022-09-27T03:14:31;95095.53;;;20.72;44.47
66486;BME280;53303;47.476;8.084;2022-09-27T03:16:56;95078.47;;;20.68;44.59
66486;BME280;53303;47.476;8.084;2022-09-27T03:19:24;95097.88;;;20.68;44.80
66486;BME280;53303;47.476;8.084;2022-09-27T03:21:50;95101.09;;;20.72;44.62
66486;BME280;53303;47.476;8.084;2022-09-27T03:24:15;95073.94;;;20.65;44.65
66486;BME280;53303;47.476;8.084;2022-09-27T03:26:40;95085.25;;;20.67;44.56
66486;BME280;53303;47.476;8.084;2022-09-27T03:29:08;95100.34;;;20.71;44.69
66486;BME280;53303;47.476;8.084;2022-09-27T03:31:33;95100.34;;;20.71;44.41
66486;BME280;53303;47.476;8.084;2022-09-27T03:33:59;95101.59;;;20.70;44.51
66486;BME280;53303;47.476;8.084;2022-09-27T03:36:24;95111.44;;;20.71;44.62
66486;BME280;53303;47.476;8.084;2022-09-27T03:38:49;95110.44;;;20.69;44.44
66486;BME280;53303;47.476;8.084;2022-09-27T03:41:15;95107.16;;;20.70;44.41
66486;BME280;53303;47.476;8.084;2022-09-27T03:43:40;95105.13;;;20.71;44.46
66486;BME280;53303;47.476;8.084;2022-09-27T03:46:05;95098.84;;;20.70;44.53
66486;BME280;53303;47.476;8.084;2022-09-27T03:48:31;95101.59;;;20.70;44.49
66486;BME280;53303;47.476;8.084;2022-09-27T03:50:56;95109.19;;;20.70;44.56
66486;BME280;53303;47.476;8.084;2022-09-27T03:53:22;95105.41;;;20.67;44.56
66486;BME280;53303;47.476;8.084;2022-09-27T03:55:47;95096.34;;;20.67;44.30
66486;BME280;53303;47.476;8.084;2022-09-27T03:58:13;95092.06;;;20.66;44.57
66486;BME280;53303;47.476;8.084;2022-09-27T04:00:42;95097.88;;;20.68;44.82
66486;BME280;53303;47.476;8.084;2022-09-27T04:03:08;95097.09;;;20.67;44.58
66486;BME280;53303;47.476;8.084;2022-09-27T04:05:33;95115.47;;;20.70;45.39
66486;BME280;53303;47.476;8.084;2022-09-27T04:07:59;95112.25;;;20.66;45.65
66486;BME280;53303;47.476;8.084;2022-09-27T04:10:27;95106.69;;;20.66;45.60
66486;BME280;53303;47.476;8.084;2022-09-27T04:12:52;95119.50;;;20.69;45.73
66486;BME280;53303;47.476;8.084;2022-09-27T04:15:18;95111.94;;;20.70;45.90
66486;BME280;53303;47.476;8.084;2022-09-27T04:17:43;95110.44;;;20.69;45.29
66486;BME280;53303;47.476;8.084;2022-09-27T04:20:10;95109.47;;;20.66;44.82
66486;BME280;53303;47.476;8.084;2022-09-27T04:22:39;95103.94;;;20.61;44.79
66486;BME280;53303;47.476;8.084;2022-09-27T04:25:08;95111.50;;;20.60;44.73
66486;BME280;53303;47.476;8.084;2022-09-27T04:27:37;95111.78;;;20.57;44.64
66486;BME280;53303;47.476;8.084;2022-09-27T04:30:03;95103.00;;;20.52;44.75
66486;BME280;53303;47.476;8.084;2022-09-27T04:32:30;95113.59;;;20.54;44.51
66486;BME280;53303;47.476;8.084;2022-09-27T04:34:56;95118.13;;;20.51;44.33
66486;BME280;53303;47.476;8.084;2022-09-27T04:37:39;95114.66;;;20.45;44.31
66486;BME280;53303;47.476;8.084;2022-09-27T04:40:06;95115.63;;;20.48;44.25
66486;BME280;53303;47.476;8.084;2022-09-27T04:42:31;95104.59;;;20.42;43.99
66486;BME280;53303;47.476;8.084;2022-09-27T04:44:58;95109.91;;;20.40;43.93
66486;BME280;53303;47.476;8.084;2022-09-27T04:47:26;95124.25;;;20.44;43.87
66486;BME280;53303;47.476;8.084;2022-09-27T04:49:51;95124.00;;;20.42;43.91
66486;BME280;53303;47.476;8.084;2022-09-27T04:52:16;95119.50;;;20.39;43.57
66486;BME280;53303;47.476;8.084;2022-09-27T04:54:44;95120.78;;;20.38;43.55
66486;BME280;53303;47.476;8.084;2022-09-27T04:57:12;95131.13;;;20.38;43.63
66486;BME280;53303;47.476;8.084;2022-09-27T04:59:38;95126.09;;;20.36;43.64
66486;BME280;53303;47.476;8.084;2022-09-27T05:02:05;95127.56;;;20.37;43.64
66486;BME280;53303;47.476;8.084;2022-09-27T05:04:31;95135.19;;;20.31;43.66
66486;BME280;53303;47.476;8.084;2022-09-27T05:06:56;95138.47;;;20.29;43.59
66486;BME280;53303;47.476;8.084;2022-09-27T05:09:21;95145.25;;;20.34;43.47
66486;BME280;53303;47.476;8.084;2022-09-27T05:11:47;95147.75;;;20.32;43.42
66486;BME280;53303;47.476;8.084;2022-09-27T05:14:12;95144.00;;;20.29;43.52
66486;BME280;53303;47.476;8.084;2022-09-27T05:16:38;95154.06;;;20.32;43.48
66486;BME280;53303;47.476;8.084;2022-09-27T05:19:03;95142.03;;;20.24;43.69
66486;BME280;53303;47.476;8.084;2022-09-27T05:21:29;95151.59;;;20.29;43.57
66486;BME280;53303;47.476;8.084;2022-09-27T05:23:55;95137.25;;;20.25;43.67
66486;BME280;53303;47.476;8.084;2022-09-27T05:26:21;95156.63;;;20.30;43.91
66486;BME280;53303;47.476;8.084;2022-09-27T05:28:49;95164.94;;;20.30;43.63
66486;BME280;53303;47.476;8.084;2022-09-27T05:31:14;95179.53;;;20.31;43.47
66486;BME280;53303;47.476;8.084;2022-09-27T05:33:42;95170.75;;;20.27;43.76
66486;BME280;53303;47.476;8.084;2022-09-27T05:36:08;95170.47;;;20.30;43.79
66486;BME280;53303;47.476;8.084;2022-09-27T05:38:33;95173.75;;;20.29;43.52
66486;BME280;53303;47.476;8.084;2022-09-27T05:41:00;95177.78;;;20.28;43.55
66486;BME280;53303;47.476;8.084;2022-09-27T05:43:29;95181.06;;;20.26;43.58
66486;BME280;53303;47.476;8.084;2022-09-27T05:45:55;95185.84;;;20.26;43.63
66486;BME280;53303;47.476;8.084;2022-09-27T05:48:20;95197.16;;;20.28;43.62
66486;BME280;53303;47.476;8.084;2022-09-27T05:50:46;95197.72;;;20.21;43.54
66486;BME280;53303;47.476;8.084;2022-09-27T05:53:11;95202.00;;;20.22;43.39
66486;BME280;53303;47.476;8.084;2022-09-27T05:55:37;95205.00;;;20.24;43.55
66486;BME280;53303;47.476;8.084;2022-09-27T05:58:06;95205.00;;;20.24;43.69
66486;BME280;53303;47.476;8.084;2022-09-27T06:00:33;95211.31;;;20.24;43.75
66486;BME280;53303;47.476;8.084;2022-09-27T06:03:02;95215.59;;;20.25;43.46
66486;BME280;53303;47.476;8.084;2022-09-27T06:05:29;95209.56;;;20.21;43.66
66486;BME280;53303;47.476;8.084;2022-09-27T06:08:00;95227.94;;;20.24;43.55
66486;BME280;53303;47.476;8.084;2022-09-27T06:10:27;95225.16;;;20.24;43.65
66486;BME280;53303;47.476;8.084;2022-09-27T06:12:52;95214.13;;;20.19;43.58
66486;BME280;53303;47.476;8.084;2022-09-27T06:15:18;95224.69;;;20.20;43.38
66486;BME280;53303;47.476;8.084;2022-09-27T06:17:46;95228.19;;;20.21;43.36
66486;BME280;53303;47.476;8.084;2022-09-27T06:20:11;95231.97;;;20.17;43.26
66486;BME280;53303;47.476;8.084;2022-09-27T06:22:37;95220.19;;;20.11;43.68
66486;BME280;53303;47.476;8.084;2022-09-27T06:25:03;95236.03;;;20.16;43.21
66486;BME280;53303;47.476;8.084;2022-09-27T06:27:30;95237.06;;;20.13;43.29
66486;BME280;53303;47.476;8.084;2022-09-27T06:29:55;95248.13;;;20.13;43.26
66486;BME280;53303;47.476;8.084;2022-09-27T06:32:21;95245.59;;;20.15;43.02
66486;BME280;53303;47.476;8.084;2022-09-27T06:34:46;95238.34;;;20.12;42.99
66486;BME280;53303;47.476;8.084;2022-09-27T06:37:12;95251.91;;;20.10;43.38
66486;BME280;53303;47.476;8.084;2022-09-27T06:39:37;95252.44;;;20.09;43.29
66486;BME280;53303;47.476;8.084;2022-09-27T06:42:02;95263.28;;;20.07;43.39
66486;BME280;53303;47.476;8.084;2022-09-27T06:44:28;95264.03;;;20.07;43.30
66486;BME280;53303;47.476;8.084;2022-09-27T06:46:53;95267.06;;;20.09;43.34
66486;BME280;53303;47.476;8.084;2022-09-27T06:49:20;95261.00;;;20.11;43.52
66486;BME280;53303;47.476;8.084;2022-09-27T06:51:47;95260.75;;;20.09;43.50
66486;BME280;53303;47.476;8.084;2022-09-27T06:54:12;95264.56;;;20.06;43.60
66486;BME280;53303;47.476;8.084;2022-09-27T06:56:38;95269.31;;;20.11;43.62
66486;BME280;53303;47.476;8.084;2022-09-27T06:59:05;95279.63;;;20.10;43.63
66486;BME280;53303;47.476;8.084;2022-09-27T07:01:49;95272.34;;;20.07;43.74
66486;BME280;53303;47.476;8.084;2022-09-27T07:04:17;95272.09;;;20.05;43.59
66486;BME280;53303;47.476;8.084;2022-09-27T07:06:43;95271.34;;;20.05;43.42
66486;BME280;53303;47.476;8.084;2022-09-27T07:09:10;95273.09;;;20.08;43.60
66486;BME280;53303;47.476;8.084;2022-09-27T07:11:36;95282.38;;;20.10;43.70
66486;BME280;53303;47.476;8.084;2022-09-27T07:14:02;95273.59;;;20.06;43.49
66486;BME280;53303;47.476;8.084;2022-09-27T07:16:29;95285.94;;;20.11;43.57
66486;BME280;53303;47.476;8.084;2022-09-27T07:18:56;95284.69;;;20.06;43.62
66486;BME280;53303;47.476;8.084;2022-09-27T07:21:24;95286.94;;;20.08;43.46
66486;BME280;53303;47.476;8.084;2022-09-27T07:23:49;95294.25;;;20.11;43.58
66486;BME280;53303;47.476;8.084;2022-09-27T07:26:18;95286.44;;;20.09;43.54
66486;BME280;53303;47.476;8.084;2022-09-27T07:28:44;95296.75;;;20.14;43.58
66486;BME280;53303;47.476;8.084;2022-09-27T07:31:10;95271.09;;;20.03;43.60
66486;BME280;53303;47.476;8.084;2022-09-27T07:33:36;95295.47;;;20.15;43.83
66486;BME280;53303;47.476;8.084;2022-09-27T07:36:07;95302.53;;;20.16;43.55
66486;BME280;53303;47.476;8.084;2022-09-27T07:38:33;95293.75;;;20.12;43.65
66486;BME280;53303;47.476;8.084;2022-09-27T07:41:09;95303.28;;;20.17;43.48
66486;BME280;53303;47.476;8.084;2022-09-27T07:43:35;95299.00;;;20.16;43.43
66486;BME280;53303;47.476;8.084;2022-09-27T07:46:03;95308.06;;;20.16;43.67
66486;BME280;53303;47.476;8.084;2022-09-27T07:48:29;95300.97;;;20.21;43.52
66486;BME280;53303;47.476;8.084;2022-09-27T07:50:54;95306.50;;;20.21;43.63
66486;BME280;53303;47.476;8.084;2022-09-27T07:53:19;95308.56;;;20.15;43.23
66486;BME280;53303;47.476;8.084;2022-09-27T07:55:50;95314.34;;;20.17;43.61
66486;BME280;53303;47.476;8.084;2022-09-27T07:58:17;95321.66;;;20.20;43.60
66486;BME280;53303;47.476;8.084;2022-09-27T08:00:48;95320.38;;;20.21;43.45
66486;BME280;53303;47.476;8.084;2022-09-27T08:03:16;95318.88;;;20.20;43.27
66486;BME280;53303;47.476;8.084;2022-09-27T08:05:45;95310.09;;;20.16;43.17
66486;BME280;53303;47.476;8.084;2022-09-27T08:08:12;95320.91;;;20.20;43.04
66486;BME280;53303;47.476;8.084;2022-09-27T08:10:37;95329.22;;;20.20;43.30
66486;BME280;53303;47.476;8.084;2022-09-27T08:13:09;95324.66;;;20.22;43.32
66486;BME280;53303;47.476;8.084;2022-09-27T08:15:34;95331.72;;;20.23;43.30
66486;BME280;53303;47.476;8.084;2022-09-27T08:18:04;95328.69;;;20.21;43.29
66486;BME280;53303;47.476;8.084;2022-09-27T08:20:29;95325.63;;;20.25;43.26
66486;BME280;53303;47.476;8.084;2022-09-27T08:22:55;95326.66;;;20.27;43.19
66486;BME280;53303;47.476;8.084;2022-09-27T08:25:21;95324.13;;;20.29;43.27
66486;BME280;53303;47.476;8.084;2022-09-27T08:27:59;95327.41;;;20.28;42.98
66486;BME280;53303;47.476;8.084;2022-09-27T08:30:25;95333.16;;;20.30;43.10
66486;BME280;53303;47.476;8.084;2022-09-27T08:32:55;95329.66;;;20.29;43.20
66486;BME280;53303;47.476;8.084;2022-09-27T08:35:21;95330.63;;;20.32;43.06
66486;BME280;53303;47.476;8.084;2022-09-27T08:37:58;95330.91;;;20.34;42.94
66486;BME280;53303;47.476;8.084;2022-09-27T08:43:26;95319.28;;;20.35;43.05
66486;BME280;53303;47.476;8.084;2022-09-27T08:46:36;95331.19;;;20.30;43.21
66486;BME280;53303;47.476;8.084;2022-09-27T08:51:41;95329.13;;;20.37;42.98
66486;BME280;53303;47.476;8.084;2022-09-27T08:54:24;95346.50;;;20.37;42.81
66486;BME280;53303;47.476;8.084;2022-09-27T08:56:52;95332.63;;;20.37;42.66
66486;BME280;53303;47.476;8.084;2022-09-27T08:59:27;95330.09;;;20.39;42.81
66486;BME280;53303;47.476;8.084;2022-09-27T09:01:54;95334.63;;;20.42;42.87
66486;BME280;53303;47.476;8.084;2022-09-27T09:04:27;95343.72;;;20.43;42.75
66486;BME280;53303;47.476;8.084;2022-09-27T09:07:26;95335.91;;;20.35;42.37
66486;BME280;53303;47.476;8.084;2022-09-27T09:35:16;95322.31;;;20.38;42.43
66486;BME280;53303;47.476;8.084;2022-09-27T09:37:47;95324.81;;;20.41;42.62
66486;BME280;53303;47.476;8.084;2022-09-27T09:42:51;95331.44;;;20.27;42.87
66486;BME280;53303;47.476;8.084;2022-09-27T09:45:23;95347.78;;;20.36;42.67
66486;BME280;53303;47.476;8.084;2022-09-27T09:47:56;95334.16;;;20.38;42.52
66486;BME280;53303;47.476;8.084;2022-09-27T09:50:33;95351.25;;;20.42;42.72
66486;BME280;53303;47.476;8.084;2022-09-27T09:55:44;95351.25;;;20.42;42.33
66486;BME280;53303;47.476;8.084;2022-09-27T09:58:27;95347.75;;;20.42;42.15
66486;BME280;53303;47.476;8.084;2022-09-27T10:01:07;95347.75;;;20.42;42.25
66486;BME280;53303;47.476;8.084;2022-09-27T10:03:35;95355.03;;;20.39;42.25
66486;BME280;53303;47.476;8.084;2022-09-27T10:06:01;95370.66;;;20.42;42.49
66486;BME280;53303;47.476;8.084;2022-09-27T10:08:26;95370.66;;;20.42;42.59
66486;BME280;53303;47.476;8.084;2022-09-27T10:10:52;95377.94;;;20.45;42.60
66486;BME280;53303;47.476;8.084;2022-09-27T10:13:19;95379.47;;;20.46;42.56
66486;BME280;53303;47.476;8.084;2022-09-27T10:15:58;95376.69;;;20.41;42.86
66486;BME280;53303;47.476;8.084;2022-09-27T10:18:26;95377.94;;;20.45;42.77
66486;BME280;53303;47.476;8.084;2022-09-27T10:20:55;95385.53;;;20.45;42.93
66486;BME280;53303;47.476;8.084;2022-09-27T10:23:23;95374.44;;;20.45;42.99
66486;BME280;53303;47.476;8.084;2022-09-27T10:31:11;95371.94;;;20.41;43.02
66486;BME280;53303;47.476;8.084;2022-09-27T10:33:50;95373.44;;;20.42;43.00
66486;BME280;53303;47.476;8.084;2022-09-27T10:36:25;95370.66;;;20.42;43.17
66486;BME280;53303;47.476;8.084;2022-09-27T10:38:54;95375.19;;;20.45;43.28
66486;BME280;53303;47.476;8.084;2022-09-27T10:41:42;95371.16;;;20.41;43.11
66486;BME280;53303;47.476;8.084;2022-09-27T10:46:53;95374.72;;;20.41;43.17
66486;BME280;53303;47.476;8.084;2022-09-27T10:49:26;95366.38;;;20.41;43.35
66486;BME280;53303;47.476;8.084;2022-09-27T10:51:57;95354.53;;;20.41;43.20
66486;BME280;53303;47.476;8.084;2022-09-27T10:54:27;95333.66;;;20.40;43.05
66486;BME280;53303;47.476;8.084;2022-09-27T10:57:05;95345.22;;;20.38;43.15
66486;BME280;53303;47.476;8.084;2022-09-27T10:59:39;95327.13;;;20.31;43.19
66486;BME280;53303;47.476;8.084;2022-09-27T11:02:19;95313.31;;;20.26;43.10
66486;BME280;53303;47.476;8.084;2022-09-27T11:05:02;95312.78;;;20.27;43.06
66486;BME280;53303;47.476;8.084;2022-09-27T11:07:28;95313.53;;;20.28;42.92
66486;BME280;53303;47.476;8.084;2022-09-27T11:09:57;95310.78;;;20.28;43.17
66486;BME280;53303;47.476;8.084;2022-09-27T11:12:28;95306.25;;;20.30;43.15
66486;BME280;53303;47.476;8.084;2022-09-27T11:15:06;95315.81;;;20.29;43.24
66486;BME280;53303;47.476;8.084;2022-09-27T11:17:55;95314.81;;;20.27;43.03
66486;BME280;53303;47.476;8.084;2022-09-27T11:20:38;95303.75;;;20.27;43.13
66486;BME280;53303;47.476;8.084;2022-09-27T11:39:08;95303.41;;;20.42;43.27
66486;BME280;53303;47.476;8.084;2022-09-27T11:44:40;95309.69;;;20.42;43.65
66486;BME280;53303;47.476;8.084;2022-09-27T11:47:38;95309.44;;;20.40;43.56
66486;BME280;53303;47.476;8.084;2022-09-27T12:10:40;95289.03;;;20.43;43.87
66486;BME280;53303;47.476;8.084;2022-09-27T12:13:12;95267.41;;;20.36;43.92
66486;BME280;53303;47.476;8.084;2022-09-27T12:15:42;95280.72;;;20.43;43.97
66486;BME280;53303;47.476;8.084;2022-09-27T12:20:41;95282.47;;;20.46;43.62
66486;BME280;53303;47.476;8.084;2022-09-27T12:23:17;95285.75;;;20.45;44.05
66486;BME280;53303;47.476;8.084;2022-09-27T12:25:47;95282.47;;;20.46;44.03
66486;BME280;53303;47.476;8.084;2022-09-27T12:28:39;95274.66;;;20.45;43.91
66486;BME280;53303;47.476;8.084;2022-09-27T12:31:27;95275.41;;;20.45;44.02
66486;BME280;53303;47.476;8.084;2022-09-27T12:34:32;95261.31;;;20.43;43.93
66486;BME280;53303;47.476;8.084;2022-09-27T12:37:15;95256.53;;;20.44;43.65
66486;BME280;53303;47.476;8.084;2022-09-27T12:42:41;95262.75;;;20.56;43.46
66486;BME280;53303;47.476;8.084;2022-09-27T12:45:13;95258.19;;;20.58;43.69
66486;BME280;53303;47.476;8.084;2022-09-27T12:52:46;95260.19;;;20.63;43.31
66486;BME280;53303;47.476;8.084;2022-09-27T13:01:12;95253.91;;;20.63;43.32
66486;BME280;53303;47.476;8.084;2022-09-27T13:12:23;95251.16;;;20.57;43.54
66486;BME280;53303;47.476;8.084;2022-09-27T13:15:11;95251.88;;;20.63;43.37
66486;BME280;53303;47.476;8.084;2022-09-27T13:23:01;95259.44;;;20.63;43.28
66486;BME280;53303;47.476;8.084;2022-09-27T13:36:19;95247.84;;;20.59;43.15
66486;BME280;53303;47.476;8.084;2022-09-27T13:47:03;95251.44;;;20.53;43.29
66486;BME280;53303;47.476;8.084;2022-09-27T13:49:35;95245.63;;;20.51;43.32
66486;BME280;53303;47.476;8.084;2022-09-27T13:52:34;95254.72;;;20.52;43.35
66486;BME280;53303;47.476;8.084;2022-09-27T13:55:06;95248.66;;;20.53;43.21
66486;BME280;53303;47.476;8.084;2022-09-27T13:57:59;95249.41;;;20.54;43.22
66486;BME280;53303;47.476;8.084;2022-09-27T14:00:33;95259.19;;;20.55;43.10
66486;BME280;53303;47.476;8.084;2022-09-27T14:05:46;95255.72;;;20.49;43.04
66486;BME280;53303;47.476;8.084;2022-09-27T14:10:51;95283.63;;;20.57;42.97
66486;BME280;53303;47.476;8.084;2022-09-27T14:13:18;95297.50;;;20.57;43.29
66486;BME280;53303;47.476;8.084;2022-09-27T14:15:45;95295.72;;;20.59;43.18
66486;BME280;53303;47.476;8.084;2022-09-27T14:18:14;95296.25;;;20.58;43.25
66486;BME280;53303;47.476;8.084;2022-09-27T14:20:43;95301.31;;;20.53;43.43
66486;BME280;53303;47.476;8.084;2022-09-27T14:23:19;95286.41;;;20.57;43.22
66486;BME280;53303;47.476;8.084;2022-09-27T14:25:49;95276.88;;;20.52;43.30
66486;BME280;53303;47.476;8.084;2022-09-27T14:28:27;95277.13;;;20.54;43.46
66486;BME280;53303;47.476;8.084;2022-09-27T14:31:16;95267.78;;;20.51;43.29
66486;BME280;53303;47.476;8.084;2022-09-27T14:33:43;95273.84;;;20.56;43.42
66486;BME280;53303;47.476;8.084;2022-09-27T14:36:33;95254.53;;;20.39;43.50
66486;BME280;53303;47.476;8.084;2022-09-27T14:41:49;95276.88;;;20.52;43.48
66486;BME280;53303;47.476;8.084;2022-09-27T14:44:17;95281.66;;;20.57;43.55
66486;BME280;53303;47.476;8.084;2022-09-27T14:46:43;95265.81;;;20.52;43.57
66486;BME280;53303;47.476;8.084;2022-09-27T14:49:23;95272.31;;;20.54;43.66
66486;BME280;53303;47.476;8.084;2022-09-27T14:51:55;95268.06;;;20.53;43.53
66486;BME280;53303;47.476;8.084;2022-09-27T14:54:28;95282.38;;;20.58;43.54
66486;BME280;53303;47.476;8.084;2022-09-27T14:56:57;95277.59;;;20.58;43.76
66486;BME280;53303;47.476;8.084;2022-09-27T14:59:29;95282.38;;;20.58;43.82
66486;BME280;53303;47.476;8.084;2022-09-27T15:02:03;95275.09;;;20.54;43.82
66486;BME280;53303;47.476;8.084;2022-09-27T15:04:36;95271.81;;;20.56;43.75
66486;BME280;53303;47.476;8.084;2022-09-27T15:07:02;95266.78;;;20.54;43.88
66486;BME280;53303;47.476;8.084;2022-09-27T15:09:30;95270.00;;;20.59;44.19
66486;BME280;53303;47.476;8.084;2022-09-27T15:11:57;95252.41;;;20.56;44.16
66486;BME280;53303;47.476;8.084;2022-09-27T15:14:28;95262.75;;;20.56;43.96
66486;BME280;53303;47.476;8.084;2022-09-27T15:16:57;95256.19;;;20.53;43.92
66486;BME280;53303;47.476;8.084;2022-09-27T15:19:28;95272.31;;;20.54;43.87
66486;BME280;53303;47.476;8.084;2022-09-27T15:21:54;95263.50;;;20.56;43.87
66486;BME280;53303;47.476;8.084;2022-09-27T15:24:39;95269.53;;;20.54;43.99
66486;BME280;53303;47.476;8.084;2022-09-27T15:27:13;95280.13;;;20.56;44.22
66486;BME280;53303;47.476;8.084;2022-09-27T15:29:40;95287.94;;;20.58;44.27
66486;BME280;53303;47.476;8.084;2022-09-27T15:32:06;95294.97;;;20.59;44.42
66486;BME280;53303;47.476;8.084;2022-09-27T15:34:37;95289.97;;;20.57;44.40
66486;BME280;53303;47.476;8.084;2022-09-27T15:37:03;95299.75;;;20.58;44.41
66486;BME280;53303;47.476;8.084;2022-09-27T15:39:37;95327.47;;;20.58;44.36
66486;BME280;53303;47.476;8.084;2022-09-27T15:42:13;95342.34;;;20.55;44.55
66486;BME280;53303;47.476;8.084;2022-09-27T15:52:52;95320.50;;;20.46;44.38
66486;BME280;53303;47.476;8.084;2022-09-27T15:55:21;95335.38;;;20.48;44.28
66486;BME280;53303;47.476;8.084;2022-09-27T15:57:52;95320.78;;;20.42;43.86
66486;BME280;53303;47.476;8.084;2022-09-27T16:00:18;95335.41;;;20.43;43.71
66486;BME280;53303;47.476;8.084;2022-09-27T16:02:45;95322.31;;;20.38;43.99
66486;BME280;53303;47.476;8.084;2022-09-27T16:05:11;95326.59;;;20.39;44.01
66486;BME280;53303;47.476;8.084;2022-09-27T16:07:37;95314.53;;;20.36;43.92
66486;BME280;53303;47.476;8.084;2022-09-27T16:10:13;95308.75;;;20.34;43.70
66486;BME280;53303;47.476;8.084;2022-09-27T16:12:40;95314.78;;;20.32;43.63
66486;BME280;53303;47.476;8.084;2022-09-27T16:15:06;95313.78;;;20.30;43.80
66486;BME280;53303;47.476;8.084;2022-09-27T16:17:32;95298.47;;;20.23;43.67
66486;BME280;53303;47.476;8.084;2022-09-27T16:20:00;95307.25;;;20.27;43.58
66486;BME280;53303;47.476;8.084;2022-09-27T16:22:25;95305.50;;;20.24;43.65
66486;BME280;53303;47.476;8.084;2022-09-27T16:24:53;95313.31;;;20.26;43.69
66486;BME280;53303;47.476;8.084;2022-09-27T16:27:26;95310.53;;;20.26;43.55
66486;BME280;53303;47.476;8.084;2022-09-27T16:29:53;95312.59;;;20.20;43.41